createdAt,value
2019-05-18T00:01:43.724Z,100.00
2019-05-18T00:04:15.865Z,100.00
2019-05-18T00:06:48.531Z,100.00
2019-05-18T00:09:21.486Z,100.00
2019-05-18T00:11:54.418Z,100.00
2019-05-18T00:14:26.543Z,100.00
2019-05-18T00:16:59.160Z,100.00
2019-05-18T00:19:34.294Z,100.00
2019-05-18T00:22:06.924Z,100.00
2019-05-18T00:24:38.962Z,100.00
2019-05-18T00:27:11.367Z,100.00
2019-05-18T00:29:44.646Z,100.00
2019-05-18T00:32:17.249Z,100.00
2019-05-18T00:34:48.907Z,100.00
2019-05-18T00:37:21.121Z,100.00
2019-05-18T00:39:53.758Z,100.00
2019-05-18T00:42:25.305Z,100.00
2019-05-18T00:44:57.641Z,100.00
2019-05-18T00:47:40.820Z,100.00
2019-05-18T00:50:05.965Z,100.00
2019-05-18T00:52:38.967Z,100.00
2019-05-18T00:55:11.793Z,100.00
2019-05-18T00:57:44.948Z,100.00
2019-05-18T01:00:16.447Z,100.00
2019-05-18T01:02:48.548Z,100.00
2019-05-18T01:05:20.942Z,100.00
2019-05-18T01:07:53.308Z,100.00
2019-05-18T01:10:26.066Z,100.00
2019-05-18T01:12:58.495Z,100.00
2019-05-18T01:15:31.276Z,100.00
2019-05-18T01:18:03.393Z,100.00
2019-05-18T01:20:36.118Z,100.00
2019-05-18T01:23:08.515Z,100.00
2019-05-18T01:25:41.145Z,100.00
2019-05-18T01:28:13.572Z,100.00
2019-05-18T01:30:46.333Z,100.00
2019-05-18T01:33:18.418Z,100.00
2019-05-18T01:35:51.506Z,100.00
2019-05-18T01:38:23.841Z,100.00
2019-05-18T01:40:55.892Z,100.00
2019-05-18T01:43:28.612Z,100.00
2019-05-18T01:46:01.112Z,100.00
2019-05-18T01:48:34.185Z,100.00
2019-05-18T01:51:07.007Z,100.00
2019-05-18T01:53:39.342Z,100.00
2019-05-18T01:56:11.501Z,100.00
2019-05-18T01:58:43.855Z,100.00
2019-05-18T02:01:16.264Z,100.00
2019-05-18T02:03:48.642Z,100.00
2019-05-18T02:06:21.690Z,100.00
2019-05-18T02:08:54.126Z,100.00
2019-05-18T02:11:27.323Z,100.00
2019-05-18T02:14:00.559Z,100.00
2019-05-18T02:16:33.338Z,100.00
2019-05-18T02:19:06.080Z,100.00
2019-05-18T02:21:38.620Z,100.00
2019-05-18T02:24:13.514Z,100.00
2019-05-18T02:26:47.875Z,100.00
2019-05-18T02:29:20.583Z,100.00
2019-05-18T02:33:07.936Z,100.00
2019-05-18T02:36:35.114Z,100.00
2019-05-18T02:39:09.807Z,100.00
2019-05-18T02:41:43.275Z,100.00
2019-05-18T02:44:14.444Z,100.00
2019-05-18T02:46:46.752Z,100.00
2019-05-18T02:49:19.274Z,100.00
2019-05-18T02:51:52.278Z,100.00
2019-05-18T02:54:24.138Z,100.00
2019-05-18T02:56:57.613Z,100.00
2019-05-18T02:59:28.682Z,100.00
2019-05-18T03:02:01.620Z,100.00
2019-05-18T03:04:34.738Z,100.00
2019-05-18T03:07:07.114Z,100.00
2019-05-18T03:09:39.178Z,100.00
2019-05-18T03:12:12.078Z,100.00
2019-05-18T03:14:44.780Z,100.00
2019-05-18T03:17:17.852Z,100.00
2019-05-18T03:19:50.759Z,100.00
2019-05-18T03:22:23.180Z,100.00
2019-05-18T03:24:57.470Z,100.00
2019-05-18T03:27:30.647Z,100.00
2019-05-18T03:30:02.842Z,100.00
2019-05-18T03:32:34.963Z,100.00
2019-05-18T03:35:08.133Z,100.00
2019-05-18T03:37:41.687Z,100.00
2019-05-18T03:40:14.840Z,100.00
2019-05-18T03:42:47.850Z,100.00
2019-05-18T03:45:20.342Z,100.00
2019-05-18T03:47:52.459Z,100.00
2019-05-18T03:50:24.968Z,100.00
2019-05-18T03:52:57.662Z,100.00
2019-05-18T03:55:30.311Z,100.00
2019-05-18T03:58:03.303Z,100.00
2019-05-18T04:00:37.920Z,100.00
2019-05-18T04:03:11.170Z,100.00
2019-05-18T04:05:44.139Z,100.00
2019-05-18T04:08:17.093Z,100.00
2019-05-18T04:10:49.614Z,100.00
2019-05-18T04:13:24.006Z,100.00
2019-05-18T04:15:57.141Z,100.00
2019-05-18T04:18:29.533Z,100.00
2019-05-18T04:21:08.174Z,100.00
2019-05-18T04:23:41.274Z,100.00
2019-05-18T04:26:17.423Z,100.00
2019-05-18T04:28:50.265Z,100.00
2019-05-18T04:31:22.711Z,100.00
2019-05-18T04:33:57.549Z,100.00
2019-05-18T04:36:33.935Z,100.00
2019-05-18T04:39:08.249Z,100.00
2019-05-18T04:41:40.875Z,100.00
2019-05-18T04:44:13.245Z,100.00
2019-05-18T04:46:45.760Z,100.00
2019-05-18T04:49:18.488Z,100.00
2019-05-18T04:51:51.013Z,100.00
2019-05-18T04:54:23.433Z,100.00
2019-05-18T04:57:02.059Z,100.00
2019-05-18T04:59:35.552Z,100.00
2019-05-18T05:02:06.720Z,100.00
2019-05-18T05:04:38.746Z,100.00
2019-05-18T05:07:12.065Z,100.00
2019-05-18T05:09:43.170Z,100.00
2019-05-18T05:12:15.316Z,100.00
2019-05-18T05:14:47.422Z,100.00
2019-05-18T05:17:20.737Z,100.00
2019-05-18T05:19:53.092Z,100.00
2019-05-18T05:22:26.384Z,100.00
2019-05-18T05:24:57.351Z,100.00
2019-05-18T05:27:38.678Z,100.00
2019-05-18T05:30:13.492Z,100.00
2019-05-18T05:32:51.434Z,100.00
2019-05-18T05:35:24.546Z,100.00
2019-05-18T05:37:57.150Z,100.00
2019-05-18T05:40:29.713Z,100.00
2019-05-18T05:43:02.386Z,100.00
2019-05-18T05:45:34.860Z,100.00
2019-05-18T05:48:07.483Z,100.00
2019-05-18T05:50:40.057Z,100.00
2019-05-18T05:53:13.088Z,100.00
2019-05-18T05:55:46.000Z,100.00
2019-05-18T05:58:17.153Z,100.00
2019-05-18T06:00:48.823Z,100.00
2019-05-18T06:03:22.772Z,100.00
2019-05-18T06:05:56.000Z,100.00
2019-05-18T06:08:28.771Z,100.00
2019-05-18T06:11:00.904Z,100.00
2019-05-18T06:13:33.266Z,100.00
2019-05-18T06:16:05.462Z,100.00
2019-05-18T06:18:37.395Z,100.00
2019-05-18T06:21:09.960Z,100.00
2019-05-18T06:23:42.900Z,100.00
2019-05-18T06:26:16.176Z,100.00
2019-05-18T06:28:49.172Z,100.00
2019-05-18T06:31:23.243Z,100.00
2019-05-18T06:33:56.446Z,100.00
2019-05-18T06:36:31.094Z,99.89
2019-05-18T06:39:04.296Z,98.85
2019-05-18T06:41:39.027Z,98.96
2019-05-18T06:44:10.613Z,97.72
2019-05-18T06:46:42.801Z,95.62
2019-05-18T06:49:15.271Z,95.71
2019-05-18T06:51:47.779Z,93.02
2019-05-18T06:54:20.182Z,91.74
2019-05-18T06:56:54.103Z,92.24
2019-05-18T06:59:29.526Z,91.70
2019-05-18T07:02:02.796Z,89.63
2019-05-18T07:04:33.936Z,86.60
2019-05-18T07:07:06.259Z,87.17
2019-05-18T07:09:38.741Z,87.44
2019-05-18T07:12:11.624Z,86.90
2019-05-18T07:14:44.445Z,85.02
2019-05-18T07:17:16.717Z,83.17
2019-05-18T07:19:50.034Z,82.34
2019-05-18T07:22:22.410Z,83.58
2019-05-18T07:24:55.344Z,81.18
2019-05-18T07:27:28.368Z,80.36
2019-05-18T07:30:00.894Z,77.21
2019-05-18T07:32:33.520Z,78.11
2019-05-18T07:35:07.743Z,75.93
2019-05-18T07:37:39.591Z,74.67
2019-05-18T07:40:14.330Z,75.54
2019-05-18T07:42:46.796Z,73.70
2019-05-18T07:45:22.399Z,72.92
2019-05-18T07:47:54.737Z,72.21
2019-05-18T07:50:29.330Z,73.02
2019-05-18T07:53:10.295Z,71.96
2019-05-18T07:55:44.612Z,68.97
2019-05-18T07:58:16.996Z,70.39
2019-05-18T08:00:49.898Z,71.53
2019-05-18T08:03:22.675Z,68.56
2019-05-18T08:05:53.439Z,70.11
2019-05-18T08:08:26.369Z,72.08
2019-05-18T08:10:58.104Z,69.28
2019-05-18T08:13:31.132Z,71.26
2019-05-18T08:16:05.108Z,68.65
2019-05-18T08:18:38.211Z,66.56
2019-05-18T08:21:10.681Z,63.56
2019-05-18T08:23:43.460Z,65.63
2019-05-18T08:26:15.947Z,62.67
2019-05-18T08:28:48.106Z,64.32
2019-05-18T08:31:20.989Z,62.88
2019-05-18T08:33:53.462Z,62.22
2019-05-18T08:36:26.400Z,64.38
2019-05-18T08:39:01.029Z,63.18
2019-05-18T08:41:33.402Z,61.09
2019-05-18T08:44:05.645Z,60.01
2019-05-18T08:46:37.672Z,59.56
2019-05-18T08:49:09.922Z,58.52
2019-05-18T08:51:42.014Z,58.22
2019-05-18T08:54:14.700Z,58.10
2019-05-18T08:56:47.529Z,56.77
2019-05-18T08:59:20.056Z,56.91
2019-05-18T09:01:52.766Z,56.54
2019-05-18T09:04:26.841Z,56.80
2019-05-18T09:06:58.921Z,55.53
2019-05-18T09:09:30.064Z,54.90
2019-05-18T09:12:03.727Z,56.07
2019-05-18T09:14:37.888Z,55.40
2019-05-18T09:17:10.435Z,54.66
2019-05-18T09:19:43.619Z,56.46
2019-05-18T09:22:23.120Z,54.45
2019-05-18T09:24:50.670Z,53.33
2019-05-18T09:27:23.230Z,52.36
2019-05-18T09:29:56.303Z,54.58
2019-05-18T09:32:28.503Z,55.75
2019-05-18T09:35:03.064Z,53.78
2019-05-18T09:37:35.678Z,51.76
2019-05-18T09:40:08.786Z,51.32
2019-05-18T09:42:42.043Z,51.41
2019-05-18T09:45:15.309Z,49.90
2019-05-18T09:47:48.422Z,50.36
2019-05-18T09:50:20.645Z,50.63
2019-05-18T09:52:52.960Z,50.39
2019-05-18T09:55:25.530Z,50.56
2019-05-18T09:58:01.376Z,49.83
2019-05-18T10:00:38.929Z,49.13
2019-05-18T10:03:10.237Z,50.15
2019-05-18T10:05:43.304Z,50.86
2019-05-18T10:08:18.966Z,49.94
2019-05-18T10:10:54.226Z,52.14
2019-05-18T10:13:27.269Z,49.82
2019-05-18T10:16:01.457Z,49.49
2019-05-18T10:18:34.311Z,50.47
2019-05-18T10:21:06.357Z,48.47
2019-05-18T10:23:40.456Z,49.83
2019-05-18T10:26:13.082Z,52.81
2019-05-18T10:28:45.241Z,48.99
2019-05-18T10:31:17.363Z,48.76
2019-05-18T10:33:49.619Z,47.79
2019-05-18T10:36:23.985Z,49.14
2019-05-18T10:38:57.258Z,47.58
2019-05-18T10:41:29.417Z,48.35
2019-05-18T10:44:02.230Z,49.58
2019-05-18T10:46:35.698Z,51.30
2019-05-18T10:49:09.637Z,49.04
2019-05-18T10:51:42.093Z,47.92
2019-05-18T10:54:16.952Z,47.59
2019-05-18T10:56:50.312Z,47.34
2019-05-18T10:59:22.929Z,46.29
2019-05-18T11:01:55.402Z,46.31
2019-05-18T11:04:27.764Z,48.50
2019-05-18T11:06:59.899Z,47.73
2019-05-18T11:09:31.705Z,45.64
2019-05-18T11:12:03.811Z,48.01
2019-05-18T11:14:36.169Z,48.56
2019-05-18T11:17:08.497Z,46.16
2019-05-18T11:19:40.562Z,47.04
2019-05-18T11:22:12.722Z,45.96
2019-05-18T11:24:45.929Z,47.25
2019-05-18T11:27:18.318Z,47.26
2019-05-18T11:29:52.409Z,47.87
2019-05-18T11:32:24.507Z,45.96
2019-05-18T11:34:57.795Z,48.29
2019-05-18T11:37:30.237Z,45.14
2019-05-18T11:40:04.619Z,44.62
2019-05-18T11:42:36.981Z,44.91
2019-05-18T11:45:11.078Z,44.73
2019-05-18T11:47:43.264Z,44.93
2019-05-18T11:50:17.874Z,46.46
2019-05-18T11:52:49.844Z,44.03
2019-05-18T11:55:31.557Z,43.97
2019-05-18T11:58:02.784Z,43.35
2019-05-18T12:00:35.482Z,43.09
2019-05-18T12:03:09.337Z,45.73
2019-05-18T12:05:44.313Z,46.88
2019-05-18T12:08:16.361Z,46.96
2019-05-18T12:10:48.777Z,47.75
2019-05-18T12:13:22.496Z,46.50
2019-05-18T12:15:54.354Z,45.04
2019-05-18T12:18:26.489Z,46.36
2019-05-18T12:20:59.009Z,47.23
2019-05-18T12:23:31.407Z,47.71
2019-05-18T12:26:04.061Z,47.36
2019-05-18T12:28:36.803Z,46.27
2019-05-18T12:31:08.741Z,46.10
2019-05-18T12:33:40.837Z,43.80
2019-05-18T12:36:15.574Z,43.39
2019-05-18T12:38:47.054Z,43.13
2019-05-18T12:41:21.425Z,43.59
2019-05-18T12:43:53.923Z,45.16
2019-05-18T12:46:26.445Z,44.95
2019-05-18T12:48:58.689Z,44.97
2019-05-18T12:51:33.745Z,45.25
2019-05-18T12:54:06.885Z,43.48
2019-05-18T12:56:39.575Z,47.03
2019-05-18T12:59:11.647Z,46.52
2019-05-18T13:01:43.771Z,44.76
2019-05-18T13:04:16.554Z,44.68
2019-05-18T13:06:49.902Z,47.32
2019-05-18T13:09:27.329Z,45.52
2019-05-18T13:11:59.412Z,44.59
2019-05-18T13:14:31.408Z,44.39
2019-05-18T13:17:03.650Z,46.02
2019-05-18T13:19:35.724Z,46.74
2019-05-18T13:22:07.819Z,45.92
2019-05-18T13:24:45.643Z,42.87
2019-05-18T13:27:17.821Z,44.23
2019-05-18T13:29:50.601Z,43.57
2019-05-18T13:32:24.126Z,44.83
2019-05-18T13:34:56.758Z,44.73
2019-05-18T13:37:30.539Z,43.38
2019-05-18T13:40:03.922Z,44.14
2019-05-18T13:42:37.109Z,43.67
2019-05-18T13:45:13.000Z,43.86
2019-05-18T13:47:45.081Z,43.84
2019-05-18T13:50:17.559Z,44.80
2019-05-18T13:52:49.694Z,43.91
2019-05-18T13:55:22.201Z,40.78
2019-05-18T13:57:55.117Z,43.06
2019-05-18T14:00:26.973Z,44.29
2019-05-18T14:03:00.382Z,44.65
2019-05-18T14:05:32.490Z,44.27
2019-05-18T14:08:06.174Z,46.90
2019-05-18T14:10:49.326Z,45.62
2019-05-18T14:13:22.105Z,46.07
2019-05-18T14:15:54.602Z,46.22
2019-05-18T14:18:43.491Z,47.39
2019-05-18T14:21:15.895Z,47.47
2019-05-18T14:23:48.048Z,46.61
2019-05-18T14:26:20.438Z,46.27
2019-05-18T14:28:52.333Z,45.87
2019-05-18T14:31:24.379Z,46.28
2019-05-18T14:33:58.654Z,46.96
2019-05-18T14:36:31.038Z,47.63
2019-05-18T14:39:06.498Z,47.13
2019-05-18T14:41:42.446Z,48.23
2019-05-18T14:44:14.391Z,48.63
2019-05-18T14:46:47.710Z,47.38
2019-05-18T14:49:20.170Z,48.40
2019-05-18T14:51:52.799Z,48.06
2019-05-18T14:54:25.961Z,47.37
2019-05-18T14:56:58.308Z,47.98
2019-05-18T14:59:30.649Z,47.29
2019-05-18T15:02:03.004Z,47.81
2019-05-18T15:04:35.546Z,47.71
2019-05-18T15:07:08.155Z,48.50
2019-05-18T15:09:40.934Z,48.87
2019-05-18T15:12:13.767Z,48.62
2019-05-18T15:14:47.171Z,48.00
2019-05-18T15:17:20.273Z,48.51
2019-05-18T15:19:57.119Z,47.76
2019-05-18T15:22:29.477Z,46.59
2019-05-18T15:25:00.519Z,46.80
2019-05-18T15:27:32.959Z,46.43
2019-05-18T15:30:04.835Z,47.36
2019-05-18T15:32:37.436Z,47.04
2019-05-18T15:35:10.639Z,46.78
2019-05-18T15:37:43.821Z,44.63
2019-05-18T15:40:17.044Z,45.19
2019-05-18T15:42:50.188Z,47.88
2019-05-18T15:45:24.817Z,45.95
2019-05-18T15:48:00.258Z,47.34
2019-05-18T15:50:34.771Z,44.97
2019-05-18T15:53:07.848Z,45.88
2019-05-18T15:55:42.808Z,44.01
2019-05-18T15:58:14.877Z,43.80
2019-05-18T16:00:46.503Z,44.54
2019-05-18T16:03:19.160Z,43.40
2019-05-18T16:05:51.299Z,44.58
2019-05-18T16:08:23.950Z,45.29
2019-05-18T16:10:57.716Z,43.99
2019-05-18T16:13:30.206Z,43.53
2019-05-18T16:16:02.685Z,44.01
2019-05-18T16:18:35.087Z,44.96
2019-05-18T16:21:08.442Z,45.51
2019-05-18T16:23:40.615Z,45.76
2019-05-18T16:26:21.115Z,46.00
2019-05-18T16:28:47.298Z,45.69
2019-05-18T16:31:20.810Z,45.90
2019-05-18T16:33:53.474Z,45.77
2019-05-18T16:36:25.970Z,45.93
2019-05-18T16:39:00.888Z,46.05
2019-05-18T16:41:33.550Z,46.04
2019-05-18T16:44:06.148Z,46.94
2019-05-18T16:46:39.016Z,46.68
2019-05-18T16:49:11.676Z,47.26
2019-05-18T16:51:44.756Z,46.92
2019-05-18T16:54:19.089Z,47.70
2019-05-18T16:56:54.221Z,48.14
2019-05-18T16:59:29.817Z,47.81
2019-05-18T17:02:02.503Z,47.06
2019-05-18T17:04:35.120Z,47.76
2019-05-18T17:07:08.064Z,48.45
2019-05-18T17:09:40.670Z,48.81
2019-05-18T17:12:14.071Z,48.68
2019-05-18T17:14:48.400Z,49.70
2019-05-18T17:17:23.490Z,50.12
2019-05-18T17:19:56.554Z,50.41
2019-05-18T17:22:31.630Z,50.07
2019-05-18T17:25:03.671Z,50.19
2019-05-18T17:27:37.403Z,50.62
2019-05-18T17:30:11.070Z,50.79
2019-05-18T17:33:07.242Z,51.07
2019-05-18T17:35:39.987Z,50.61
2019-05-18T17:38:12.486Z,51.19
2019-05-18T17:40:44.554Z,50.33
2019-05-18T17:43:18.781Z,50.09
2019-05-18T17:45:51.165Z,50.81
2019-05-18T17:48:28.288Z,51.51
2019-05-18T17:51:00.477Z,51.19
2019-05-18T17:53:32.950Z,52.08
2019-05-18T17:56:05.625Z,51.20
2019-05-18T17:58:39.129Z,51.78
2019-05-18T18:01:14.216Z,52.35
2019-05-18T18:03:46.832Z,52.59
2019-05-18T18:06:19.511Z,52.52
2019-05-18T18:08:52.525Z,52.97
2019-05-18T18:11:25.076Z,52.86
2019-05-18T18:13:57.255Z,53.26
2019-05-18T18:16:29.644Z,53.76
2019-05-18T18:19:02.408Z,53.77
2019-05-18T18:21:35.642Z,54.80
2019-05-18T18:24:06.417Z,54.75
2019-05-18T18:26:40.009Z,54.98
2019-05-18T18:29:12.335Z,54.86
2019-05-18T18:31:45.316Z,55.68
2019-05-18T18:34:18.427Z,56.39
2019-05-18T18:36:50.601Z,56.31
2019-05-18T18:39:22.962Z,56.20
2019-05-18T18:41:56.118Z,56.38
2019-05-18T18:44:29.104Z,56.65
2019-05-18T18:47:02.223Z,57.15
2019-05-18T18:49:34.594Z,56.82
2019-05-18T18:52:07.240Z,57.29
2019-05-18T18:54:39.596Z,57.31
2019-05-18T18:57:13.850Z,57.49
2019-05-18T18:59:45.911Z,57.54
2019-05-18T19:02:18.661Z,57.89
2019-05-18T19:04:49.742Z,58.16
2019-05-18T19:07:23.739Z,58.43
2019-05-18T19:09:55.831Z,58.86
2019-05-18T19:12:28.477Z,58.51
2019-05-18T19:15:05.574Z,59.11
2019-05-18T19:17:38.308Z,59.30
2019-05-18T19:20:11.824Z,59.87
2019-05-18T19:22:44.664Z,59.88
2019-05-18T19:25:17.305Z,60.32
2019-05-18T19:27:54.884Z,60.45
2019-05-18T19:30:25.347Z,61.96
2019-05-18T19:33:02.820Z,62.72
2019-05-18T19:35:35.230Z,62.90
2019-05-18T19:38:10.619Z,63.21
2019-05-18T19:40:44.873Z,63.80
2019-05-18T19:43:25.192Z,65.13
2019-05-18T19:45:55.586Z,65.54
2019-05-18T19:48:27.888Z,66.22
2019-05-18T19:51:00.935Z,66.16
2019-05-18T19:53:33.037Z,66.61
2019-05-18T19:56:05.673Z,67.22
2019-05-18T19:58:39.065Z,68.83
2019-05-18T20:01:12.743Z,69.14
2019-05-18T20:03:45.512Z,69.78
2019-05-18T20:06:17.826Z,70.20
2019-05-18T20:08:50.993Z,70.86
2019-05-18T20:11:23.678Z,71.83
2019-05-18T20:13:56.855Z,72.31
2019-05-18T20:16:29.627Z,72.05
2019-05-18T20:19:02.141Z,72.74
2019-05-18T20:21:34.990Z,74.07
2019-05-18T20:24:08.062Z,75.04
2019-05-18T20:26:41.115Z,75.34
2019-05-18T20:29:14.114Z,75.48
2019-05-18T20:31:47.212Z,75.94
2019-05-18T20:34:20.654Z,76.19
2019-05-18T20:36:54.684Z,75.18
2019-05-18T20:39:29.336Z,75.25
2019-05-18T20:42:02.527Z,76.24
2019-05-18T20:44:37.216Z,74.75
2019-05-18T20:47:09.600Z,77.33
2019-05-18T20:49:42.035Z,77.88
2019-05-18T20:52:17.595Z,77.56
2019-05-18T20:54:50.540Z,78.28
2019-05-18T20:57:25.475Z,77.54
2019-05-18T20:59:58.213Z,77.71
2019-05-18T21:02:34.433Z,80.07
2019-05-18T21:05:07.920Z,80.32
2019-05-18T21:07:40.734Z,79.66
2019-05-18T21:10:14.783Z,80.25
2019-05-18T21:12:47.757Z,82.08
2019-05-18T21:15:21.193Z,82.35
2019-05-18T21:17:54.750Z,81.24
2019-05-18T21:20:27.717Z,83.41
2019-05-18T21:23:00.128Z,82.70
2019-05-18T21:25:33.000Z,81.63
2019-05-18T21:28:05.795Z,81.71
2019-05-18T21:30:39.566Z,83.23
2019-05-18T21:33:11.979Z,82.98
2019-05-18T21:35:44.107Z,83.42
2019-05-18T21:38:16.551Z,80.64
2019-05-18T21:40:50.000Z,82.25
2019-05-18T21:43:23.109Z,83.17
2019-05-18T21:45:56.940Z,83.52
2019-05-18T21:48:29.706Z,84.59
2019-05-18T21:51:01.932Z,83.45
2019-05-18T21:53:34.866Z,84.40
2019-05-18T21:56:07.571Z,84.29
2019-05-18T21:58:40.272Z,85.95
2019-05-18T22:01:12.637Z,84.90
2019-05-18T22:03:48.075Z,85.22
2019-05-18T22:06:19.543Z,86.26
2019-05-18T22:08:54.385Z,86.13
2019-05-18T22:11:26.747Z,84.35
2019-05-18T22:14:00.437Z,87.41
2019-05-18T22:16:35.274Z,86.41
2019-05-18T22:19:08.089Z,86.26
2019-05-18T22:21:40.370Z,87.71
2019-05-18T22:24:13.012Z,87.17
2019-05-18T22:26:45.435Z,89.09
2019-05-18T22:29:19.311Z,90.52
2019-05-18T22:31:54.015Z,90.35
2019-05-18T22:34:26.396Z,90.05
2019-05-18T22:36:58.776Z,89.02
2019-05-18T22:39:32.096Z,90.51
2019-05-18T22:42:07.533Z,90.24
2019-05-18T22:44:40.342Z,90.40
2019-05-18T22:47:15.014Z,91.27
2019-05-18T22:49:47.746Z,92.66
2019-05-18T22:52:20.815Z,93.44
2019-05-18T22:54:56.011Z,93.14
2019-05-18T22:57:28.121Z,93.10
2019-05-18T23:00:01.152Z,90.64
2019-05-18T23:02:32.774Z,94.16
2019-05-18T23:05:05.630Z,93.27
2019-05-18T23:07:39.053Z,92.42
2019-05-18T23:10:12.495Z,94.76
2019-05-18T23:12:46.144Z,93.93
2019-05-18T23:15:18.738Z,94.80
2019-05-18T23:17:51.240Z,94.18
2019-05-18T23:20:24.342Z,95.74
2019-05-18T23:22:59.018Z,96.58
2019-05-18T23:25:33.558Z,95.74
2019-05-18T23:28:05.930Z,98.93
2019-05-18T23:30:39.069Z,99.89
2019-05-18T23:33:12.316Z,96.65
2019-05-18T23:35:44.720Z,98.26
2019-05-18T23:38:16.717Z,96.98
2019-05-18T23:40:49.982Z,96.09
2019-05-18T23:43:22.176Z,97.70
2019-05-18T23:45:54.817Z,98.36
2019-05-18T23:48:26.883Z,99.29
2019-05-18T23:51:00.615Z,100.00
2019-05-18T23:53:34.028Z,99.33
2019-05-18T23:56:06.159Z,100.00
2019-05-18T23:58:38.302Z,100.00
